createdAt,value
2019-05-05T00:01:38.747Z,34.45
2019-05-05T00:04:34.730Z,34.05
2019-05-05T00:07:09.755Z,33.08
2019-05-05T00:09:45.532Z,32.88
2019-05-05T00:12:22.690Z,34.25
2019-05-05T00:15:14.592Z,34.48
2019-05-05T00:17:50.692Z,34.15
2019-05-05T00:20:26.059Z,36.80
2019-05-05T00:23:01.922Z,34.38
2019-05-05T00:25:37.457Z,34.18
2019-05-05T00:28:14.317Z,35.55
2019-05-05T00:30:49.832Z,35.03
2019-05-05T00:33:25.578Z,34.30
2019-05-05T00:36:01.002Z,35.30
2019-05-05T00:38:36.901Z,35.08
2019-05-05T00:41:14.651Z,36.75
2019-05-05T00:46:24.584Z,35.80
2019-05-05T00:48:59.971Z,35.17
2019-05-05T00:51:35.155Z,34.15
2019-05-05T00:54:15.213Z,35.78
2019-05-05T00:56:50.817Z,35.65
2019-05-05T00:59:34.794Z,34.90
2019-05-05T01:02:17.592Z,36.58
2019-05-05T01:04:59.450Z,36.58
2019-05-05T01:07:35.047Z,35.70
2019-05-05T01:10:14.315Z,35.78
2019-05-05T01:12:51.127Z,36.70
2019-05-05T01:18:02.297Z,35.15
2019-05-05T01:20:38.825Z,36.95
2019-05-05T01:23:15.020Z,36.03
2019-05-05T01:25:50.739Z,36.83
2019-05-05T01:28:26.193Z,36.13
2019-05-05T01:31:03.091Z,36.10
2019-05-05T01:33:39.611Z,37.10
2019-05-05T01:36:16.258Z,35.68
2019-05-05T01:39:04.334Z,37.30
2019-05-05T01:41:49.178Z,37.28
2019-05-05T01:44:27.995Z,37.20
2019-05-05T01:47:05.218Z,38.63
2019-05-05T01:49:39.918Z,41.73
2019-05-05T01:52:15.622Z,38.63
2019-05-05T01:54:57.284Z,38.23
2019-05-05T01:57:34.453Z,39.03
2019-05-05T02:00:14.844Z,41.85
2019-05-05T02:02:52.652Z,41.80
2019-05-05T02:05:27.924Z,43.75
2019-05-05T02:08:05.832Z,44.90
2019-05-05T02:10:45.177Z,40.17
2019-05-05T02:13:20.269Z,40.23
2019-05-05T02:15:56.087Z,40.55
2019-05-05T02:18:32.084Z,39.97
2019-05-05T02:21:14.624Z,41.35
2019-05-05T02:23:55.018Z,47.27
2019-05-05T02:26:34.870Z,44.77
2019-05-05T02:29:24.723Z,48.65
2019-05-05T02:32:18.387Z,44.08
2019-05-05T02:34:59.273Z,46.55
2019-05-05T02:37:36.445Z,43.05
2019-05-05T02:40:17.816Z,45.95
2019-05-05T02:42:59.111Z,45.45
2019-05-05T02:46:07.635Z,46.20
2019-05-05T02:48:44.982Z,45.45
2019-05-05T02:51:25.502Z,50.15
2019-05-05T02:54:01.227Z,46.40
2019-05-05T02:56:54.194Z,46.95
2019-05-05T03:00:13.487Z,48.58
2019-05-05T03:02:50.374Z,49.48
2019-05-05T03:05:26.297Z,50.05
2019-05-05T03:08:05.070Z,46.33
2019-05-05T03:13:40.561Z,45.58
2019-05-05T03:16:24.953Z,43.92
2019-05-05T03:18:59.937Z,52.10
2019-05-05T03:21:38.239Z,57.43
2019-05-05T03:24:15.557Z,47.33
2019-05-05T03:26:53.734Z,48.23
2019-05-05T03:29:28.933Z,49.18
2019-05-05T03:32:05.687Z,49.42
2019-05-05T03:34:44.513Z,47.38
2019-05-05T03:37:20.932Z,49.05
2019-05-05T03:39:57.755Z,44.60
2019-05-05T03:42:39.291Z,48.33
2019-05-05T03:45:19.072Z,47.62
2019-05-05T03:47:59.017Z,46.92
2019-05-05T03:50:38.894Z,49.13
2019-05-05T03:53:17.276Z,47.50
2019-05-05T03:55:54.524Z,47.45
2019-05-05T03:58:30.517Z,46.95
2019-05-05T04:01:26.647Z,46.73
2019-05-05T04:04:41.483Z,47.43
2019-05-05T04:07:16.646Z,45.55
2019-05-05T04:09:54.292Z,46.90
2019-05-05T04:12:31.556Z,47.23
2019-05-05T04:15:17.148Z,47.00
2019-05-05T04:18:15.227Z,47.55
2019-05-05T04:20:50.768Z,50.20
2019-05-05T04:23:36.820Z,47.95
2019-05-05T04:26:16.163Z,48.80
2019-05-05T04:28:55.707Z,50.58
2019-05-05T04:31:34.537Z,49.23
2019-05-05T04:34:10.395Z,50.90
2019-05-05T04:36:55.982Z,52.53
2019-05-05T04:39:26.279Z,53.13
2019-05-05T04:42:11.011Z,57.67
2019-05-05T04:44:47.024Z,56.77
2019-05-05T04:47:28.078Z,57.05
2019-05-05T04:50:06.883Z,48.23
2019-05-05T04:52:43.949Z,53.55
2019-05-05T04:55:19.840Z,49.42
2019-05-05T04:58:04.505Z,61.37
2019-05-05T05:01:24.635Z,62.48
2019-05-05T05:07:36.653Z,60.17
2019-05-05T05:13:31.397Z,66.75
2019-05-05T05:16:09.926Z,67.42
2019-05-05T05:18:45.534Z,66.17
2019-05-05T05:21:23.705Z,68.75
2019-05-05T05:28:14.160Z,69.55
2019-05-05T05:30:48.317Z,74.17
2019-05-05T05:36:16.854Z,64.82
2019-05-05T05:42:01.183Z,61.10
2019-05-05T05:48:05.306Z,62.00
2019-05-05T05:51:14.642Z,62.15
2019-05-05T05:56:18.435Z,63.90
2019-05-05T05:58:57.096Z,56.95
2019-05-05T06:01:37.960Z,63.52
2019-05-05T06:04:20.988Z,62.33
2019-05-05T06:06:56.371Z,61.48
2019-05-05T08:12:04.294Z,247.35
2019-05-05T08:14:45.517Z,104.90
2019-05-05T08:17:40.254Z,176.27
2019-05-05T08:20:19.420Z,74.67
2019-05-05T08:23:28.658Z,55.35
2019-05-05T08:26:04.589Z,132.37
2019-05-05T08:28:44.187Z,62.90
2019-05-05T08:31:22.340Z,59.13
2019-05-05T08:34:00.363Z,56.90
2019-05-05T08:36:39.417Z,46.68
2019-05-05T08:39:15.888Z,69.42
2019-05-05T08:41:56.571Z,85.57
2019-05-05T08:44:41.480Z,48.85
2019-05-05T08:47:17.650Z,55.85
2019-05-05T08:49:54.127Z,59.27
2019-05-05T08:52:29.821Z,63.65
2019-05-05T08:55:07.498Z,54.65
2019-05-05T08:57:45.350Z,45.45
2019-05-05T09:00:24.481Z,39.10
2019-05-05T09:03:03.573Z,39.85
2019-05-05T09:05:38.351Z,48.83
2019-05-05T09:08:14.077Z,41.80
2019-05-05T09:10:56.980Z,44.65
2019-05-05T09:13:33.875Z,93.60
2019-05-05T09:16:09.739Z,71.22
2019-05-05T09:21:41.688Z,52.48
2019-05-05T09:24:24.846Z,47.00
2019-05-05T09:27:17.307Z,36.73
2019-05-05T09:30:00.657Z,42.23
2019-05-05T09:32:37.570Z,37.38
2019-05-05T09:35:15.169Z,42.58
2019-05-05T09:37:53.843Z,48.48
2019-05-05T09:40:33.498Z,40.52
2019-05-05T09:43:15.026Z,37.25
2019-05-05T09:45:54.452Z,31.77
2019-05-05T09:48:33.959Z,33.88
2019-05-05T09:51:10.154Z,29.48
2019-05-05T09:56:23.829Z,30.40
2019-05-05T09:59:00.676Z,30.65
2019-05-05T10:01:37.313Z,31.35
2019-05-05T10:04:18.278Z,30.85
2019-05-05T10:06:55.450Z,36.83
2019-05-05T10:09:31.169Z,37.88
2019-05-05T10:12:06.905Z,34.20
2019-05-05T10:14:44.922Z,26.77
2019-05-05T10:17:24.461Z,32.88
2019-05-05T10:20:03.877Z,33.00
2019-05-05T10:22:39.024Z,29.10
2019-05-05T10:25:31.707Z,27.80
2019-05-05T10:28:09.337Z,26.00
2019-05-05T10:30:46.749Z,37.58
2019-05-05T10:33:27.535Z,97.05
2019-05-05T10:36:07.574Z,89.67
2019-05-05T10:38:46.996Z,89.07
2019-05-05T10:41:24.089Z,68.28
2019-05-05T10:44:03.671Z,63.02
2019-05-05T10:46:42.135Z,101.67
2019-05-05T10:49:19.480Z,67.92
2019-05-05T10:51:56.895Z,57.70
2019-05-05T10:54:43.279Z,58.10
2019-05-05T10:57:10.318Z,41.30
2019-05-05T10:59:48.385Z,35.30
2019-05-05T11:02:25.724Z,44.25
2019-05-05T11:05:04.083Z,42.93
2019-05-05T11:07:40.256Z,40.43
2019-05-05T11:10:17.030Z,39.92
2019-05-05T11:15:33.529Z,33.73
2019-05-05T11:18:11.312Z,30.75
2019-05-05T11:20:50.473Z,29.80
2019-05-05T11:23:29.417Z,29.63
2019-05-05T11:26:06.388Z,26.80
2019-05-05T11:28:44.390Z,25.00
2019-05-05T11:31:23.919Z,26.77
2019-05-05T11:34:01.321Z,26.87
2019-05-05T11:36:40.086Z,25.55
2019-05-05T11:39:18.192Z,25.95
2019-05-05T11:41:56.726Z,26.20
2019-05-05T11:44:37.406Z,28.12
2019-05-05T11:47:13.986Z,26.95
2019-05-05T11:49:53.824Z,26.75
2019-05-05T11:52:29.664Z,25.60
2019-05-05T11:55:11.631Z,23.85
2019-05-05T11:57:43.768Z,27.48
2019-05-05T12:00:21.231Z,26.93
2019-05-05T12:03:09.886Z,25.35
2019-05-05T12:05:57.311Z,26.82
2019-05-05T12:08:37.918Z,26.57
2019-05-05T12:11:15.074Z,22.98
2019-05-05T12:13:54.431Z,24.65
2019-05-05T12:16:34.666Z,25.65
2019-05-05T12:19:13.768Z,24.75
2019-05-05T12:21:57.700Z,27.20
2019-05-05T12:24:37.178Z,28.15
2019-05-05T12:27:16.325Z,40.03
2019-05-05T12:29:54.452Z,36.88
2019-05-05T12:32:36.601Z,27.90
2019-05-05T12:35:14.938Z,27.05
2019-05-05T12:37:53.821Z,28.12
2019-05-05T12:40:34.788Z,28.05
2019-05-05T12:43:37.159Z,27.40
2019-05-05T12:46:30.632Z,24.90
2019-05-05T12:49:09.478Z,27.70
2019-05-05T12:51:47.448Z,27.15
2019-05-05T12:54:24.557Z,32.35
2019-05-05T12:57:00.876Z,33.55
2019-05-05T12:59:36.953Z,34.53
2019-05-05T13:02:14.777Z,32.42
2019-05-05T13:04:53.994Z,31.87
2019-05-05T13:07:31.258Z,31.42
2019-05-05T13:10:19.821Z,34.05
2019-05-05T13:12:55.919Z,32.50
2019-05-05T13:15:33.779Z,36.53
2019-05-05T13:18:14.032Z,33.75
2019-05-05T13:21:07.163Z,32.40
2019-05-05T13:24:04.355Z,30.77
2019-05-05T13:27:08.499Z,32.67
2019-05-05T13:29:45.241Z,32.48
2019-05-05T13:32:21.910Z,31.15
2019-05-05T13:35:00.864Z,29.63
2019-05-05T13:37:44.269Z,28.38
2019-05-05T13:40:28.658Z,27.77
2019-05-05T13:43:06.918Z,27.93
2019-05-05T13:46:01.258Z,28.30
2019-05-05T13:48:37.431Z,28.02
2019-05-05T13:51:17.799Z,26.73
2019-05-05T13:53:58.792Z,26.10
2019-05-05T13:56:40.268Z,27.98
2019-05-05T13:59:26.618Z,27.77
2019-05-05T14:02:13.793Z,30.95
2019-05-05T14:04:50.780Z,31.23
2019-05-05T14:07:28.002Z,28.95
2019-05-05T14:10:04.912Z,26.40
2019-05-05T14:12:43.762Z,26.33
2019-05-05T14:15:33.985Z,27.05
2019-05-05T14:18:19.270Z,26.02
2019-05-05T14:20:56.278Z,27.42
2019-05-05T14:26:36.358Z,24.27
2019-05-05T14:29:14.670Z,24.25
2019-05-05T14:31:57.117Z,23.60
2019-05-05T14:34:41.515Z,23.50
2019-05-05T14:37:34.042Z,23.45
2019-05-05T14:40:28.972Z,22.45
2019-05-05T14:43:07.715Z,21.77
2019-05-05T14:45:45.025Z,23.27
2019-05-05T14:48:24.186Z,21.77
2019-05-05T14:51:04.289Z,21.82
2019-05-05T14:53:44.483Z,22.25
2019-05-05T14:56:35.430Z,23.38
2019-05-05T14:59:03.871Z,22.67
2019-05-05T15:01:41.639Z,21.93
2019-05-05T15:04:36.154Z,23.20
2019-05-05T15:07:20.401Z,24.12
2019-05-05T15:10:23.957Z,24.18
2019-05-05T15:13:04.541Z,24.27
2019-05-05T15:18:35.564Z,26.75
2019-05-05T15:21:18.939Z,26.50
2019-05-05T15:23:57.259Z,28.17
2019-05-05T15:26:34.434Z,27.62
2019-05-05T15:29:18.956Z,26.70
2019-05-05T15:31:56.315Z,27.65
2019-05-05T15:34:47.676Z,27.05
2019-05-05T15:37:29.819Z,27.40
2019-05-05T15:43:18.662Z,26.95
2019-05-05T15:46:00.697Z,27.55
2019-05-05T15:48:39.506Z,24.37
2019-05-05T15:51:18.811Z,25.00
2019-05-05T15:53:56.911Z,23.18
2019-05-05T15:59:28.521Z,25.72
2019-05-05T16:02:14.001Z,27.58
2019-05-05T16:04:55.319Z,26.50
2019-05-05T16:07:33.922Z,26.25
2019-05-05T16:10:15.944Z,23.70
2019-05-05T16:12:54.677Z,23.02
2019-05-05T16:15:39.390Z,24.90
2019-05-05T16:18:32.827Z,26.35
2019-05-05T16:21:26.285Z,28.90
2019-05-05T16:24:05.803Z,29.27
2019-05-05T16:26:43.286Z,31.48
2019-05-05T16:29:23.760Z,31.12
2019-05-05T16:32:05.475Z,31.85
2019-05-05T16:34:41.985Z,32.95
2019-05-05T16:39:54.963Z,37.00
2019-05-05T16:42:35.316Z,36.13
2019-05-05T16:45:13.670Z,36.75
2019-05-05T16:47:49.980Z,38.98
2019-05-05T16:50:31.815Z,40.10
2019-05-05T16:53:17.118Z,37.98
2019-05-05T16:55:53.937Z,36.42
2019-05-05T17:01:08.434Z,37.73
2019-05-05T17:03:45.840Z,39.05
2019-05-05T17:06:24.377Z,38.02
2019-05-05T17:09:00.911Z,39.55
2019-05-05T17:11:37.657Z,39.15
2019-05-05T17:14:23.433Z,40.70
2019-05-05T17:17:08.965Z,40.78
2019-05-05T17:19:47.721Z,41.70
2019-05-05T17:22:35.390Z,42.08
2019-05-05T17:25:13.845Z,42.30
2019-05-05T17:27:54.405Z,42.03
2019-05-05T17:30:29.735Z,43.10
2019-05-05T17:33:05.614Z,43.60
2019-05-05T17:35:41.708Z,44.90
2019-05-05T17:38:18.879Z,43.08
2019-05-05T17:40:55.690Z,43.13
2019-05-05T17:43:34.049Z,42.67
2019-05-05T17:46:15.345Z,42.40
2019-05-05T17:48:55.928Z,43.70
2019-05-05T17:51:37.035Z,43.65
2019-05-05T17:54:33.908Z,44.35
2019-05-05T17:57:09.689Z,46.33
2019-05-05T17:59:45.769Z,45.78
2019-05-05T18:02:23.675Z,45.90
2019-05-05T18:04:59.624Z,46.83
2019-05-05T18:07:36.571Z,47.80
2019-05-05T18:10:26.231Z,46.08
2019-05-05T18:13:04.629Z,45.75
2019-05-05T18:15:54.407Z,44.67
2019-05-05T18:18:30.630Z,49.10
2019-05-05T18:21:08.293Z,51.48
2019-05-05T18:23:48.449Z,47.33
2019-05-05T18:26:26.861Z,48.33
2019-05-05T18:29:03.822Z,48.68
2019-05-05T18:31:39.274Z,48.65
2019-05-05T18:34:16.233Z,48.08
2019-05-05T18:36:54.453Z,50.60
2019-05-05T18:39:30.757Z,51.20
2019-05-05T18:42:13.814Z,49.70
2019-05-05T18:44:50.177Z,54.88
2019-05-05T18:47:28.578Z,51.25
2019-05-05T18:50:06.148Z,51.63
2019-05-05T18:52:44.553Z,51.58
2019-05-05T18:55:20.919Z,52.43
2019-05-05T18:57:57.675Z,54.90
2019-05-05T19:00:50.495Z,58.30
2019-05-05T19:03:28.282Z,55.58
2019-05-05T19:06:05.200Z,58.90
2019-05-05T19:11:20.249Z,54.35
2019-05-05T19:13:57.146Z,56.40
2019-05-05T19:19:10.953Z,58.60
2019-05-05T19:21:50.533Z,63.45
2019-05-05T19:24:28.569Z,61.37
2019-05-05T19:27:04.242Z,62.73
2019-05-05T19:29:40.917Z,63.23
2019-05-05T19:32:16.289Z,63.40
2019-05-05T19:34:54.242Z,62.73
2019-05-05T19:37:28.457Z,59.90
2019-05-05T19:40:06.193Z,61.70
2019-05-05T19:42:45.941Z,62.30
2019-05-05T19:45:24.082Z,63.40
2019-05-05T19:48:00.396Z,61.33
2019-05-05T19:50:38.639Z,61.17
2019-05-05T19:53:28.095Z,63.20
2019-05-05T19:56:04.639Z,62.10
2019-05-05T19:58:55.082Z,64.75
2019-05-05T20:01:31.588Z,60.83
2019-05-05T20:06:36.581Z,62.88
2019-05-05T20:09:16.789Z,61.37
2019-05-05T20:11:54.346Z,60.05
2019-05-05T20:14:30.454Z,59.93
2019-05-05T20:17:14.638Z,61.30
2019-05-05T20:19:50.131Z,60.80
2019-05-05T20:22:26.571Z,62.13
2019-05-05T20:25:04.250Z,60.38
2019-05-05T20:27:39.477Z,61.33
2019-05-05T20:30:20.509Z,60.00
2019-05-05T20:33:00.384Z,56.53
2019-05-05T20:35:40.605Z,57.73
2019-05-05T20:38:21.025Z,58.35
2019-05-05T20:41:14.357Z,60.40
2019-05-05T20:43:53.991Z,56.23
2019-05-05T20:46:29.853Z,56.98
2019-05-05T20:49:05.587Z,56.13
2019-05-05T20:51:41.237Z,57.60
2019-05-05T20:54:17.032Z,54.93
2019-05-05T20:56:53.981Z,55.40
2019-05-05T20:59:31.147Z,58.65
2019-05-05T21:02:09.125Z,57.65
2019-05-05T21:04:46.137Z,58.38
2019-05-05T21:07:24.416Z,58.75
2019-05-05T21:09:58.852Z,60.30
2019-05-05T21:12:42.276Z,62.45
2019-05-05T21:17:48.434Z,58.98
2019-05-05T21:20:24.622Z,61.37
2019-05-05T21:23:07.386Z,58.63
2019-05-05T21:26:00.989Z,65.12
2019-05-05T21:28:36.520Z,68.52
2019-05-05T21:31:14.346Z,65.60
2019-05-05T21:33:50.813Z,88.30
2019-05-05T21:36:26.670Z,68.83
2019-05-05T21:39:03.913Z,64.62
2019-05-05T21:44:14.657Z,62.78
2019-05-05T21:46:51.103Z,70.87
2019-05-05T21:49:26.754Z,68.52
2019-05-05T21:52:07.869Z,73.15
2019-05-05T21:54:50.174Z,73.90
2019-05-05T21:57:31.386Z,65.03
2019-05-05T22:00:09.092Z,66.60
2019-05-05T22:02:46.014Z,64.95
2019-05-05T22:05:23.889Z,71.37
2019-05-05T22:07:58.588Z,65.30
2019-05-05T22:10:34.642Z,65.87
2019-05-05T22:13:10.061Z,64.97
2019-05-05T22:15:45.945Z,65.35
2019-05-05T22:18:21.440Z,69.17
2019-05-05T22:20:58.531Z,66.15
2019-05-05T22:23:36.609Z,65.45
2019-05-05T22:26:14.601Z,63.70
2019-05-05T22:28:49.957Z,62.73
2019-05-05T22:31:25.696Z,61.70
2019-05-05T22:34:05.100Z,61.15
2019-05-05T22:39:16.383Z,59.53
2019-05-05T22:41:50.824Z,60.58
2019-05-05T22:44:26.770Z,54.25
2019-05-05T22:47:04.506Z,56.33
2019-05-05T22:49:39.466Z,57.78
2019-05-05T22:52:15.186Z,54.90
2019-05-05T22:54:50.702Z,52.88
2019-05-05T22:57:26.907Z,53.68
2019-05-05T23:00:03.765Z,52.33
2019-05-05T23:02:56.720Z,51.20
2019-05-05T23:05:50.126Z,46.98
2019-05-05T23:08:27.697Z,46.37
2019-05-05T23:11:04.081Z,44.98
2019-05-05T23:16:16.500Z,43.92
2019-05-05T23:18:54.226Z,43.87
2019-05-05T23:24:16.916Z,45.65
2019-05-05T23:26:54.623Z,46.18
2019-05-05T23:29:30.270Z,45.25
2019-05-05T23:32:06.245Z,45.25
2019-05-05T23:34:41.856Z,48.77
2019-05-05T23:37:17.810Z,43.78
2019-05-05T23:39:54.123Z,41.13
2019-05-05T23:42:29.961Z,42.33
2019-05-05T23:45:09.209Z,38.30
2019-05-05T23:47:45.060Z,39.25
2019-05-05T23:50:21.219Z,40.60
2019-05-05T23:52:58.538Z,37.80
2019-05-05T23:55:34.453Z,34.55
2019-05-05T23:58:10.575Z,34.80
